createdAt,value
2019-04-26T00:01:21.655Z,5.84
2019-04-26T00:03:50.913Z,5.87
2019-04-26T00:06:19.369Z,5.90
2019-04-26T00:08:49.457Z,5.98
2019-04-26T00:11:34.937Z,5.99
2019-04-26T00:14:05.118Z,6.07
2019-04-26T00:16:38.180Z,5.99
2019-04-26T00:19:06.410Z,5.99
2019-04-26T00:21:34.901Z,6.00
2019-04-26T00:24:03.406Z,6.09
2019-04-26T00:26:31.897Z,6.36
2019-04-26T00:29:00.491Z,6.97
2019-04-26T00:31:28.702Z,7.44
2019-04-26T00:33:56.922Z,7.58
2019-04-26T00:36:25.153Z,7.70
2019-04-26T00:38:53.700Z,7.96
2019-04-26T00:41:22.661Z,8.37
2019-04-26T00:43:51.378Z,8.48
2019-04-26T00:46:20.919Z,8.48
2019-04-26T00:48:49.166Z,8.67
2019-04-26T00:51:17.405Z,8.74
2019-04-26T00:53:45.888Z,8.81
2019-04-26T00:56:14.645Z,8.93
2019-04-26T00:58:43.187Z,9.01
2019-04-26T01:01:11.543Z,9.02
2019-04-26T01:03:40.053Z,8.98
2019-04-26T01:06:09.883Z,8.96
2019-04-26T01:08:38.057Z,8.93
2019-04-26T01:11:06.243Z,8.87
2019-04-26T01:13:34.416Z,8.70
2019-04-26T01:16:02.935Z,8.47
2019-04-26T01:18:31.546Z,8.23
2019-04-26T01:20:59.795Z,8.03
2019-04-26T01:23:27.975Z,7.77
2019-04-26T01:26:04.338Z,7.63
2019-04-26T01:28:41.794Z,7.73
2019-04-26T01:31:09.972Z,7.65
2019-04-26T01:33:38.311Z,7.51
2019-04-26T01:36:13.374Z,7.44
2019-04-26T01:38:36.917Z,7.40
2019-04-26T01:41:09.424Z,7.32
2019-04-26T01:43:39.239Z,7.17
2019-04-26T01:46:18.075Z,7.07
2019-04-26T01:49:01.746Z,7.01
2019-04-26T01:51:39.285Z,6.93
2019-04-26T01:54:08.437Z,6.83
2019-04-26T01:56:36.916Z,6.67
2019-04-26T01:59:05.929Z,6.56
2019-04-26T02:01:41.870Z,6.47
2019-04-26T02:04:10.351Z,6.37
2019-04-26T02:06:38.836Z,6.30
2019-04-26T02:09:08.958Z,6.17
2019-04-26T02:11:37.657Z,5.95
2019-04-26T02:14:06.253Z,5.92
2019-04-26T02:16:34.481Z,5.77
2019-04-26T02:19:02.705Z,5.74
2019-04-26T02:21:38.179Z,5.75
2019-04-26T02:24:20.560Z,5.68
2019-04-26T02:26:48.782Z,5.65
2019-04-26T02:29:21.943Z,5.56
2019-04-26T02:31:52.467Z,5.44
2019-04-26T02:34:20.673Z,5.38
2019-04-26T02:36:58.114Z,5.28
2019-04-26T02:39:27.454Z,5.18
2019-04-26T02:41:57.494Z,5.08
2019-04-26T02:44:30.895Z,5.08
2019-04-26T02:47:32.536Z,5.07
2019-04-26T02:50:06.871Z,5.04
2019-04-26T02:52:53.267Z,4.87
2019-04-26T02:55:45.841Z,4.96
2019-04-26T02:58:14.058Z,4.82
2019-04-26T03:00:42.361Z,4.68
2019-04-26T03:03:10.605Z,4.63
2019-04-26T03:05:40.164Z,4.62
2019-04-26T03:08:10.349Z,4.56
2019-04-26T03:10:40.900Z,4.44
2019-04-26T03:13:12.958Z,4.42
2019-04-26T03:15:55.117Z,4.48
2019-04-26T03:18:34.663Z,4.44
2019-04-26T03:21:22.497Z,4.40
2019-04-26T03:24:08.820Z,4.38
2019-04-26T03:26:57.081Z,4.37
2019-04-26T03:29:49.371Z,4.34
2019-04-26T03:32:26.853Z,4.39
2019-04-26T03:35:24.192Z,4.50
2019-04-26T03:38:21.212Z,4.63
2019-04-26T03:41:12.228Z,4.80
2019-04-26T03:43:44.584Z,4.95
2019-04-26T03:46:30.912Z,5.12
2019-04-26T03:49:22.840Z,5.25
2019-04-26T03:52:12.597Z,5.31
2019-04-26T03:54:41.089Z,5.39
2019-04-26T03:57:29.919Z,5.44
2019-04-26T04:00:02.993Z,5.48
2019-04-26T04:03:03.745Z,5.54
2019-04-26T04:05:44.177Z,5.73
2019-04-26T04:08:15.675Z,5.85
2019-04-26T04:10:50.185Z,5.95
2019-04-26T04:13:40.719Z,6.07
2019-04-26T04:16:20.727Z,6.13
2019-04-26T04:18:54.719Z,6.19
2019-04-26T04:21:38.637Z,6.27
2019-04-26T04:24:11.035Z,6.33
2019-04-26T04:27:00.767Z,6.35
2019-04-26T04:29:46.277Z,6.38
2019-04-26T04:32:11.191Z,6.43
2019-04-26T04:34:47.485Z,6.52
2019-04-26T04:37:16.307Z,6.64
2019-04-26T04:39:54.067Z,6.75
2019-04-26T04:42:32.383Z,6.83
2019-04-26T04:45:34.876Z,6.92
2019-04-26T04:48:19.416Z,7.00
2019-04-26T04:51:10.650Z,7.08
2019-04-26T04:54:00.400Z,7.18
2019-04-26T04:56:53.244Z,7.24
2019-04-26T04:59:24.675Z,7.34
2019-04-26T05:02:00.639Z,7.40
2019-04-26T05:04:32.153Z,7.43
2019-04-26T05:07:29.713Z,7.50
2019-04-26T05:10:16.509Z,7.55
2019-04-26T05:12:52.085Z,7.59
2019-04-26T05:15:44.743Z,7.69
2019-04-26T05:18:35.823Z,7.72
2019-04-26T05:21:10.055Z,7.79
2019-04-26T05:23:51.058Z,7.86
2019-04-26T05:27:00.133Z,7.92
2019-04-26T05:29:46.458Z,8.00
2019-04-26T05:32:29.454Z,8.07
2019-04-26T05:35:16.052Z,8.14
2019-04-26T05:38:17.812Z,8.26
2019-04-26T05:40:56.319Z,8.24
2019-04-26T05:43:50.148Z,8.30
2019-04-26T05:46:29.005Z,8.33
2019-04-26T05:49:24.439Z,8.45
2019-04-26T05:52:26.418Z,8.54
2019-04-26T05:55:08.350Z,8.51
2019-04-26T05:58:09.503Z,8.59
2019-04-26T06:01:25.555Z,8.48
2019-04-26T06:04:15.399Z,8.45
2019-04-26T06:06:48.480Z,8.43
2019-04-26T06:09:27.053Z,8.47
2019-04-26T06:12:16.953Z,8.40
2019-04-26T06:14:56.792Z,8.43
2019-04-26T06:18:06.836Z,8.21
2019-04-26T06:20:38.493Z,8.23
2019-04-26T06:23:18.929Z,8.16
2019-04-26T06:25:58.006Z,8.25
2019-04-26T06:28:45.103Z,8.18
2019-04-26T06:31:34.928Z,8.07
2019-04-26T06:34:09.308Z,8.12
2019-04-26T06:36:42.397Z,8.12
2019-04-26T06:39:13.764Z,8.15
2019-04-26T06:42:06.709Z,8.10
2019-04-26T06:44:48.368Z,8.12
2019-04-26T06:47:26.457Z,8.07
2019-04-26T06:50:03.391Z,8.13
2019-04-26T06:52:31.676Z,8.06
2019-04-26T06:55:13.886Z,8.03
2019-04-26T06:58:16.218Z,8.05
2019-04-26T07:00:48.168Z,7.90
2019-04-26T07:03:43.844Z,7.92
2019-04-26T07:06:15.572Z,7.97
2019-04-26T07:08:57.681Z,7.95
2019-04-26T07:11:48.896Z,7.96
2019-04-26T07:14:26.278Z,7.90
2019-04-26T07:16:58.037Z,7.91
2019-04-26T07:19:53.952Z,7.87
2019-04-26T07:23:00.907Z,7.93
2019-04-26T07:26:00.314Z,7.92
2019-04-26T07:29:06.772Z,7.89
2019-04-26T07:32:05.902Z,7.98
2019-04-26T07:35:02.731Z,8.09
2019-04-26T07:37:50.711Z,8.11
2019-04-26T07:40:52.500Z,8.07
2019-04-26T07:43:40.817Z,8.09
2019-04-26T07:46:28.519Z,8.04
2019-04-26T07:49:25.913Z,8.11
2019-04-26T07:52:14.153Z,8.11
2019-04-26T07:55:11.361Z,8.11
2019-04-26T07:58:16.553Z,8.19
2019-04-26T08:00:58.560Z,8.18
2019-04-26T08:03:40.920Z,8.22
2019-04-26T08:06:21.271Z,8.20
2019-04-26T08:08:55.796Z,8.20
2019-04-26T08:11:33.217Z,8.21
2019-04-26T08:14:10.609Z,8.19
2019-04-26T08:16:55.851Z,8.26
2019-04-26T08:19:24.910Z,8.15
2019-04-26T08:21:53.403Z,8.14
2019-04-26T08:24:24.058Z,8.21
2019-04-26T08:27:13.601Z,8.26
2019-04-26T08:29:35.803Z,8.21
2019-04-26T08:32:06.980Z,8.24
2019-04-26T08:34:36.458Z,8.42
2019-04-26T08:37:06.668Z,8.59
2019-04-26T08:39:44.912Z,8.49
2019-04-26T08:42:11.852Z,8.59
2019-04-26T08:44:40.025Z,8.49
2019-04-26T08:47:26.584Z,8.62
2019-04-26T08:50:13.021Z,8.71
2019-04-26T08:52:38.842Z,8.91
2019-04-26T08:55:07.362Z,9.26
2019-04-26T08:57:36.265Z,9.04
2019-04-26T09:00:11.987Z,8.99
2019-04-26T09:02:50.546Z,9.15
2019-04-26T09:05:39.359Z,9.13
2019-04-26T09:08:07.541Z,9.43
2019-04-26T09:10:39.340Z,9.21
2019-04-26T09:13:06.861Z,9.10
2019-04-26T09:16:05.414Z,9.39
2019-04-26T09:18:43.198Z,8.85
2019-04-26T09:21:03.832Z,8.45
2019-04-26T09:23:52.004Z,8.29
2019-04-26T09:26:26.932Z,8.38
2019-04-26T09:29:13.215Z,8.37
2019-04-26T09:31:54.521Z,8.33
2019-04-26T09:34:29.151Z,8.45
2019-04-26T09:36:57.320Z,8.19
2019-04-26T09:39:25.514Z,8.09
2019-04-26T09:41:55.342Z,7.91
2019-04-26T09:44:32.184Z,7.84
2019-04-26T09:47:13.763Z,7.79
2019-04-26T09:49:58.610Z,7.66
2019-04-26T09:52:31.342Z,7.58
2019-04-26T09:54:59.530Z,7.74
2019-04-26T09:57:27.702Z,7.77
2019-04-26T09:59:56.229Z,7.63
2019-04-26T10:02:24.710Z,7.89
2019-04-26T10:04:53.194Z,7.91
2019-04-26T10:07:21.364Z,7.81
2019-04-26T10:09:51.704Z,7.57
2019-04-26T10:12:27.296Z,7.42
2019-04-26T10:14:57.109Z,7.26
2019-04-26T10:17:26.928Z,6.96
2019-04-26T10:19:55.970Z,6.84
2019-04-26T10:22:26.080Z,6.81
2019-04-26T10:24:54.254Z,6.76
2019-04-26T10:27:22.437Z,6.85
2019-04-26T10:29:50.619Z,6.97
2019-04-26T10:32:21.882Z,6.81
2019-04-26T10:34:49.026Z,6.67
2019-04-26T10:37:17.164Z,6.47
2019-04-26T10:39:45.657Z,6.53
2019-04-26T10:42:13.856Z,6.35
2019-04-26T10:44:42.024Z,6.37
2019-04-26T10:47:10.217Z,6.29
2019-04-26T10:49:42.240Z,6.27
2019-04-26T10:52:15.880Z,6.17
2019-04-26T10:54:46.117Z,6.25
2019-04-26T10:57:18.872Z,6.44
2019-04-26T10:59:51.469Z,6.46
2019-04-26T11:02:19.822Z,6.44
2019-04-26T11:04:48.001Z,6.44
2019-04-26T11:07:16.188Z,6.31
2019-04-26T11:09:44.643Z,6.21
2019-04-26T11:12:13.214Z,6.23
2019-04-26T11:14:41.380Z,6.24
2019-04-26T11:17:11.454Z,6.32
2019-04-26T11:19:39.795Z,6.15
2019-04-26T11:22:08.279Z,6.39
2019-04-26T11:24:36.461Z,6.26
2019-04-26T11:27:05.303Z,6.04
2019-04-26T11:29:34.849Z,5.91
2019-04-26T11:32:04.283Z,5.83
2019-04-26T11:34:32.504Z,5.80
2019-04-26T11:37:01.018Z,5.82
2019-04-26T11:39:29.211Z,5.73
2019-04-26T11:41:57.383Z,5.52
2019-04-26T11:44:27.588Z,5.39
2019-04-26T11:46:55.471Z,5.35
2019-04-26T11:49:23.643Z,5.31
2019-04-26T11:51:52.110Z,5.31
2019-04-26T11:54:20.801Z,5.34
2019-04-26T11:56:50.571Z,5.40
2019-04-26T11:59:18.803Z,5.52
2019-04-26T12:01:46.973Z,5.44
2019-04-26T12:04:16.798Z,5.31
2019-04-26T12:06:55.602Z,5.42
2019-04-26T12:09:40.702Z,5.52
2019-04-26T12:12:09.373Z,5.63
2019-04-26T12:14:38.776Z,5.62
2019-04-26T12:17:06.958Z,5.63
2019-04-26T12:19:35.138Z,5.66
2019-04-26T12:22:04.346Z,5.71
2019-04-26T12:24:34.483Z,5.71
2019-04-26T12:27:02.822Z,5.83
2019-04-26T12:29:31.388Z,5.80
2019-04-26T12:31:59.565Z,5.62
2019-04-26T12:34:27.755Z,5.66
2019-04-26T12:36:55.927Z,5.74
2019-04-26T12:39:24.492Z,5.39
2019-04-26T12:41:52.664Z,5.43
2019-04-26T12:44:21.119Z,5.27
2019-04-26T12:46:53.700Z,5.09
2019-04-26T12:49:24.258Z,5.03
2019-04-26T12:51:52.211Z,5.17
2019-04-26T12:54:20.483Z,5.20
2019-04-26T12:56:48.995Z,5.16
2019-04-26T12:59:17.485Z,5.13
2019-04-26T13:01:46.401Z,5.24
2019-04-26T13:04:16.260Z,5.17
2019-04-26T13:06:51.751Z,5.25
2019-04-26T13:09:21.754Z,5.29
2019-04-26T13:12:01.002Z,5.38
2019-04-26T13:14:34.069Z,5.54
2019-04-26T13:17:20.017Z,5.75
2019-04-26T13:19:49.662Z,5.93
2019-04-26T13:22:18.775Z,6.14
2019-04-26T13:24:47.203Z,6.09
2019-04-26T13:27:15.383Z,5.98
2019-04-26T13:29:43.903Z,5.98
2019-04-26T13:32:12.082Z,5.88
2019-04-26T13:34:40.262Z,6.10
2019-04-26T13:37:08.448Z,6.18
2019-04-26T13:39:36.845Z,6.16
2019-04-26T13:42:09.333Z,6.11
2019-04-26T13:44:53.056Z,6.17
2019-04-26T13:47:22.874Z,6.13
2019-04-26T13:50:08.835Z,6.00
2019-04-26T13:52:37.307Z,5.88
2019-04-26T13:55:06.897Z,5.84
2019-04-26T13:57:35.392Z,5.75
2019-04-26T14:00:07.589Z,5.91
2019-04-26T14:02:36.161Z,5.95
2019-04-26T14:05:04.536Z,6.00
2019-04-26T14:07:33.006Z,6.11
2019-04-26T14:10:01.189Z,6.15
2019-04-26T14:12:29.668Z,6.29
2019-04-26T14:14:58.172Z,6.36
2019-04-26T14:17:29.789Z,6.50
2019-04-26T14:19:56.483Z,6.47
2019-04-26T14:22:26.303Z,6.62
2019-04-26T14:24:57.068Z,6.65
2019-04-26T14:27:28.026Z,6.72
2019-04-26T14:29:56.543Z,6.74
2019-04-26T14:32:24.723Z,6.81
2019-04-26T14:34:52.909Z,7.02
2019-04-26T14:37:21.079Z,7.12
2019-04-26T14:39:50.969Z,7.13
2019-04-26T14:42:33.219Z,6.74
2019-04-26T14:44:49.862Z,6.70
2019-04-26T14:47:18.600Z,6.63
2019-04-26T14:49:46.704Z,6.74
2019-04-26T14:52:15.868Z,6.59
2019-04-26T14:54:46.116Z,6.59
2019-04-26T14:57:21.390Z,6.68
2019-04-26T14:59:47.120Z,6.75
2019-04-26T15:02:23.365Z,6.97
2019-04-26T15:05:07.183Z,7.08
2019-04-26T15:07:32.540Z,7.16
2019-04-26T15:10:02.812Z,7.47
2019-04-26T15:12:32.409Z,7.50
2019-04-26T15:15:04.065Z,7.56
2019-04-26T15:17:32.273Z,7.47
2019-04-26T15:20:00.499Z,7.52
2019-04-26T15:22:29.056Z,7.43
2019-04-26T15:24:57.317Z,7.44
2019-04-26T15:27:25.538Z,7.44
2019-04-26T15:29:57.167Z,7.58
2019-04-26T15:32:24.068Z,7.34
2019-04-26T15:34:54.990Z,7.47
2019-04-26T15:37:27.135Z,7.48
2019-04-26T15:40:06.020Z,7.18
2019-04-26T15:42:35.845Z,7.38
2019-04-26T15:45:07.847Z,7.23
2019-04-26T15:47:53.930Z,7.42
2019-04-26T15:50:32.996Z,7.44
2019-04-26T15:53:02.519Z,7.49
2019-04-26T15:55:33.891Z,7.40
2019-04-26T15:58:02.684Z,7.43
2019-04-26T16:00:32.720Z,7.36
2019-04-26T16:03:03.790Z,7.43
2019-04-26T16:05:32.772Z,7.46
2019-04-26T16:08:03.193Z,7.57
2019-04-26T16:10:36.823Z,7.59
2019-04-26T16:13:15.784Z,7.63
2019-04-26T16:15:32.469Z,7.78
2019-04-26T16:18:03.859Z,7.78
2019-04-26T16:20:33.073Z,8.00
2019-04-26T16:23:06.238Z,8.08
2019-04-26T16:25:34.467Z,8.21
2019-04-26T16:28:18.647Z,8.40
2019-04-26T16:30:48.462Z,8.46
2019-04-26T16:33:24.512Z,8.54
2019-04-26T16:35:57.389Z,8.77
2019-04-26T16:38:39.448Z,9.06
2019-04-26T16:41:07.628Z,9.20
2019-04-26T16:43:40.214Z,9.01
2019-04-26T16:46:06.176Z,9.11
2019-04-26T16:48:34.363Z,9.19
2019-04-26T16:51:08.587Z,9.18
2019-04-26T16:53:45.863Z,9.09
2019-04-26T16:56:03.639Z,8.78
2019-04-26T16:58:38.158Z,8.52
2019-04-26T17:01:04.500Z,8.43
2019-04-26T17:03:32.716Z,8.27
2019-04-26T17:06:06.735Z,8.16
2019-04-26T17:08:31.235Z,8.00
2019-04-26T17:11:00.786Z,7.86
2019-04-26T17:13:30.043Z,7.67
2019-04-26T17:15:59.978Z,7.73
2019-04-26T17:18:28.250Z,7.60
2019-04-26T17:20:56.417Z,7.51
2019-04-26T17:23:30.010Z,7.49
2019-04-26T17:26:16.282Z,7.41
2019-04-26T17:28:44.477Z,7.34
2019-04-26T17:31:12.646Z,7.27
2019-04-26T17:33:40.836Z,7.23
2019-04-26T17:36:11.429Z,7.20
2019-04-26T17:38:41.916Z,7.17
2019-04-26T17:41:10.946Z,7.16
2019-04-26T17:43:42.249Z,7.13
2019-04-26T17:46:10.665Z,7.09
2019-04-26T17:48:40.845Z,7.07
2019-04-26T17:51:11.821Z,7.05
2019-04-26T17:53:40.100Z,7.00
2019-04-26T17:56:08.748Z,6.99
2019-04-26T17:58:51.574Z,6.96
2019-04-26T18:01:12.104Z,6.94
2019-04-26T18:03:50.830Z,6.94
2019-04-26T18:06:13.985Z,6.94
2019-04-26T18:08:49.790Z,6.90
2019-04-26T18:11:18.992Z,6.85
2019-04-26T18:13:40.010Z,6.82
2019-04-26T18:16:08.524Z,6.80
2019-04-26T18:18:38.354Z,6.79
2019-04-26T18:21:23.343Z,6.77
2019-04-26T18:23:57.034Z,6.76
2019-04-26T18:26:24.557Z,6.71
2019-04-26T18:28:55.139Z,6.74
2019-04-26T18:31:28.554Z,6.73
2019-04-26T18:33:54.800Z,6.71
2019-04-26T18:36:23.611Z,6.72
2019-04-26T18:38:53.578Z,6.72
2019-04-26T18:41:23.004Z,6.71
2019-04-26T18:43:54.108Z,6.71
2019-04-26T18:46:24.053Z,6.72
2019-04-26T18:48:53.456Z,6.72
2019-04-26T18:51:23.525Z,6.74
2019-04-26T18:54:02.815Z,6.74
2019-04-26T18:56:38.864Z,6.72
2019-04-26T18:59:03.209Z,6.67
2019-04-26T19:01:34.664Z,6.67
2019-04-26T19:04:09.550Z,6.67
2019-04-26T19:06:37.649Z,6.65
2019-04-26T19:09:05.805Z,6.61
2019-04-26T19:11:35.562Z,6.57
2019-04-26T19:14:12.973Z,6.51
2019-04-26T19:16:39.203Z,6.49
2019-04-26T19:19:26.025Z,6.47
2019-04-26T19:21:55.911Z,6.42
2019-04-26T19:24:24.413Z,6.38
2019-04-26T19:26:52.897Z,6.33
2019-04-26T19:29:29.364Z,6.29
2019-04-26T19:31:52.223Z,6.23
2019-04-26T19:34:21.869Z,6.20
2019-04-26T19:36:50.322Z,6.17
2019-04-26T19:39:22.806Z,6.12
2019-04-26T19:41:53.666Z,6.10
2019-04-26T19:44:19.046Z,6.09
2019-04-26T19:47:06.907Z,6.03
2019-04-26T19:49:36.895Z,5.93
2019-04-26T19:52:25.330Z,5.87
2019-04-26T19:54:55.143Z,5.83
2019-04-26T19:57:24.991Z,5.88
2019-04-26T19:59:53.176Z,5.92
2019-04-26T20:02:21.721Z,5.94
2019-04-26T20:04:51.381Z,5.96
2019-04-26T20:07:19.912Z,5.96
2019-04-26T20:09:48.097Z,5.92
2019-04-26T20:12:16.424Z,5.89
2019-04-26T20:14:50.670Z,5.85
2019-04-26T20:17:19.994Z,5.81
2019-04-26T20:19:47.829Z,5.79
2019-04-26T20:22:14.429Z,5.75
2019-04-26T20:24:43.018Z,5.75
2019-04-26T20:27:15.593Z,5.71
2019-04-26T20:29:47.309Z,5.68
2019-04-26T20:32:23.914Z,5.65
2019-04-26T20:34:53.684Z,5.61
2019-04-26T20:37:25.619Z,5.55
2019-04-26T20:40:15.471Z,5.48
2019-04-26T20:42:22.912Z,5.45
2019-04-26T20:44:53.631Z,5.44
2019-04-26T20:47:21.694Z,5.44
2019-04-26T20:50:00.253Z,5.47
2019-04-26T20:52:21.483Z,5.49
2019-04-26T20:54:51.123Z,5.49
2019-04-26T20:57:21.905Z,5.50
2019-04-26T20:59:52.053Z,5.51
2019-04-26T21:02:23.155Z,5.47
2019-04-26T21:04:51.522Z,5.44
2019-04-26T21:07:19.921Z,5.38
2019-04-26T21:09:48.418Z,5.24
2019-04-26T21:12:18.415Z,5.12
2019-04-26T21:14:46.685Z,5.01
2019-04-26T21:17:14.872Z,4.99
2019-04-26T21:19:43.063Z,4.94
2019-04-26T21:22:11.550Z,4.86
2019-04-26T21:24:41.670Z,4.79
2019-04-26T21:27:14.201Z,4.69
2019-04-26T21:29:59.041Z,4.64
2019-04-26T21:32:43.788Z,4.56
2019-04-26T21:35:13.753Z,4.48
2019-04-26T21:37:53.965Z,4.45
2019-04-26T21:40:27.511Z,4.45
2019-04-26T21:42:59.827Z,4.40
2019-04-26T21:45:30.794Z,4.42
2019-04-26T21:47:56.465Z,4.35
2019-04-26T21:50:24.650Z,4.33
2019-04-26T21:52:54.145Z,4.32
2019-04-26T21:55:27.753Z,4.32
2019-04-26T21:57:53.833Z,4.27
2019-04-26T22:00:39.870Z,4.28
2019-04-26T22:03:14.187Z,4.27
2019-04-26T22:05:39.587Z,4.24
2019-04-26T22:08:07.778Z,4.24
2019-04-26T22:10:39.615Z,4.21
2019-04-26T22:13:09.137Z,4.12
2019-04-26T22:15:57.330Z,4.00
2019-04-26T22:18:36.510Z,3.93
2019-04-26T22:21:06.632Z,3.81
2019-04-26T22:23:43.640Z,3.70
2019-04-26T22:26:13.656Z,3.64
2019-04-26T22:28:43.337Z,3.59
2019-04-26T22:31:13.322Z,3.37
2019-04-26T22:33:42.866Z,3.38
2019-04-26T22:36:13.139Z,3.25
2019-04-26T22:38:42.850Z,3.15
2019-04-26T22:41:11.069Z,3.04
2019-04-26T22:43:54.006Z,2.94
2019-04-26T22:46:48.668Z,2.84
2019-04-26T22:49:13.300Z,2.80
2019-04-26T22:51:43.443Z,2.76
2019-04-26T22:54:11.495Z,2.75
2019-04-26T22:56:39.675Z,2.78
2019-04-26T22:59:08.192Z,2.91
2019-04-26T23:01:39.231Z,3.05
2019-04-26T23:04:07.032Z,3.13
2019-04-26T23:06:35.218Z,3.19
2019-04-26T23:09:03.480Z,3.23
2019-04-26T23:11:33.312Z,3.25
2019-04-26T23:14:17.380Z,3.28
2019-04-26T23:17:05.674Z,3.32
2019-04-26T23:19:36.110Z,3.34
2019-04-26T23:22:04.523Z,3.42
2019-04-26T23:24:32.708Z,3.43
2019-04-26T23:27:00.884Z,3.46
2019-04-26T23:29:29.075Z,3.45
2019-04-26T23:31:57.266Z,3.50
2019-04-26T23:34:25.704Z,3.53
2019-04-26T23:36:54.117Z,3.59
2019-04-26T23:39:22.802Z,3.61
2019-04-26T23:41:53.951Z,3.64
2019-04-26T23:44:23.244Z,3.66
2019-04-26T23:46:56.622Z,3.70
2019-04-26T23:49:25.049Z,3.74
2019-04-26T23:51:53.234Z,3.82
2019-04-26T23:54:21.550Z,3.85
2019-04-26T23:56:49.736Z,3.86
2019-04-26T23:59:20.697Z,3.90
